createdAt,value
2022-12-06T00:00:52.766Z,12.41
2022-12-06T00:03:20.336Z,12.09
2022-12-06T00:05:47.901Z,12.41
2022-12-06T00:08:15.705Z,12.20
2022-12-06T00:10:43.251Z,12.41
2022-12-06T00:13:10.769Z,12.42
2022-12-06T00:15:39.641Z,12.41
2022-12-06T00:18:07.229Z,12.42
2022-12-06T00:20:34.929Z,12.41
2022-12-06T00:23:02.504Z,12.41
2022-12-06T00:25:30.186Z,12.40
2022-12-06T00:27:57.700Z,12.39
2022-12-06T00:30:25.232Z,12.39
2022-12-06T00:32:54.110Z,12.35
2022-12-06T00:35:21.637Z,12.40
2022-12-06T00:37:49.158Z,12.38
2022-12-06T00:40:16.761Z,12.38
2022-12-06T00:42:44.568Z,12.38
2022-12-06T00:45:12.359Z,12.40
2022-12-06T00:47:39.898Z,12.40
2022-12-06T00:50:10.223Z,12.39
2022-12-06T00:52:37.783Z,12.38
2022-12-06T00:55:05.851Z,12.38
2022-12-06T00:57:33.389Z,12.37
2022-12-06T01:00:01.124Z,12.36
2022-12-06T01:02:28.844Z,12.37
2022-12-06T01:04:56.403Z,12.36
2022-12-06T01:07:25.252Z,12.28
2022-12-06T01:09:52.827Z,12.36
2022-12-06T01:12:20.266Z,12.37
2022-12-06T01:14:47.726Z,12.37
2022-12-06T01:17:15.158Z,12.37
2022-12-06T01:19:42.870Z,12.37
2022-12-06T01:22:10.297Z,12.38
2022-12-06T01:24:39.345Z,12.37
2022-12-06T01:27:06.785Z,12.36
2022-12-06T01:29:34.250Z,12.36
2022-12-06T01:32:01.700Z,12.27
2022-12-06T01:34:29.163Z,12.35
2022-12-06T01:36:56.607Z,12.35
2022-12-06T01:39:24.168Z,12.35
2022-12-06T01:41:52.919Z,12.34
2022-12-06T01:44:39.668Z,12.36
2022-12-06T01:47:07.162Z,12.35
2022-12-06T01:49:35.376Z,12.35
2022-12-06T01:52:04.439Z,12.36
2022-12-06T01:54:32.574Z,12.35
2022-12-06T01:57:01.347Z,12.34
2022-12-06T01:59:28.849Z,12.23
2022-12-06T02:01:56.548Z,12.33
2022-12-06T02:04:24.060Z,12.32
2022-12-06T02:06:51.854Z,11.89
2022-12-06T02:09:19.584Z,11.82
2022-12-06T02:11:47.652Z,12.32
2022-12-06T02:14:17.632Z,12.33
2022-12-06T02:16:58.700Z,12.33
2022-12-06T02:19:48.959Z,12.34
2022-12-06T02:22:17.422Z,12.30
2022-12-06T02:24:56.770Z,12.30
2022-12-06T02:27:47.602Z,11.89
2022-12-06T02:30:18.625Z,12.30
2022-12-06T02:32:54.512Z,12.29
2022-12-06T02:35:26.308Z,12.28
2022-12-06T02:37:54.908Z,11.86
2022-12-06T02:40:24.403Z,12.18
2022-12-06T02:42:54.375Z,12.29
2022-12-06T02:45:24.215Z,12.08
2022-12-06T02:47:52.981Z,11.83
2022-12-06T02:50:23.376Z,12.30
2022-12-06T02:52:51.503Z,12.29
2022-12-06T02:55:19.332Z,12.29
2022-12-06T02:57:47.722Z,12.13
2022-12-06T03:00:33.980Z,12.07
2022-12-06T03:03:19.310Z,12.28
2022-12-06T03:05:52.921Z,12.26
2022-12-06T03:08:24.167Z,12.27
2022-12-06T03:10:53.640Z,12.28
2022-12-06T03:13:23.995Z,12.26
2022-12-06T03:15:54.843Z,12.27
2022-12-06T03:18:25.153Z,12.28
2022-12-06T03:20:53.299Z,11.87
2022-12-06T03:23:22.814Z,11.83
2022-12-06T03:25:50.268Z,12.26
2022-12-06T03:28:18.054Z,12.26
2022-12-06T03:30:47.257Z,12.26
2022-12-06T03:33:14.831Z,12.26
2022-12-06T03:35:43.643Z,12.25
2022-12-06T03:38:12.011Z,12.25
2022-12-06T03:40:40.285Z,12.24
2022-12-06T03:43:07.714Z,12.24
2022-12-06T03:45:38.111Z,12.24
2022-12-06T03:48:08.048Z,12.24
2022-12-06T03:50:37.011Z,11.93
2022-12-06T03:53:05.912Z,12.24
2022-12-06T03:55:33.385Z,12.24
2022-12-06T03:58:00.843Z,12.24
2022-12-06T04:00:28.299Z,12.24
2022-12-06T04:02:55.762Z,12.22
2022-12-06T04:05:23.193Z,12.23
2022-12-06T04:07:50.710Z,12.22
2022-12-06T04:10:19.584Z,11.70
2022-12-06T04:13:01.295Z,12.21
2022-12-06T04:15:29.181Z,12.21
2022-12-06T04:18:10.719Z,12.15
2022-12-06T04:21:00.887Z,12.22
2022-12-06T04:23:28.375Z,12.20
2022-12-06T04:25:57.157Z,12.20
2022-12-06T04:28:42.394Z,12.20
2022-12-06T04:31:27.776Z,12.19
2022-12-06T04:34:13.269Z,12.20
2022-12-06T04:36:58.564Z,12.20
2022-12-06T04:39:26.263Z,12.20
2022-12-06T04:42:13.015Z,12.16
2022-12-06T04:44:40.484Z,12.21
2022-12-06T04:47:08.345Z,12.22
2022-12-06T04:49:35.921Z,12.23
2022-12-06T04:52:03.486Z,12.06
2022-12-06T04:54:31.163Z,12.23
2022-12-06T04:57:00.018Z,12.24
2022-12-06T04:59:28.404Z,12.23
2022-12-06T05:04:15.579Z,12.21
2022-12-06T05:06:43.060Z,12.21
2022-12-06T05:09:10.549Z,12.22
2022-12-06T05:11:37.993Z,12.21
2022-12-06T05:14:06.766Z,12.22
2022-12-06T05:16:34.348Z,12.23
2022-12-06T05:19:01.880Z,12.21
2022-12-06T05:21:29.499Z,12.23
2022-12-06T05:23:57.059Z,12.24
2022-12-06T05:26:25.744Z,12.25
2022-12-06T05:28:53.710Z,12.25
2022-12-06T05:31:22.871Z,11.90
2022-12-06T05:33:50.479Z,12.28
2022-12-06T05:36:19.880Z,12.29
2022-12-06T05:38:51.313Z,12.30
2022-12-06T05:41:19.341Z,11.69
2022-12-06T05:43:46.818Z,12.31
2022-12-06T05:46:14.402Z,11.90
2022-12-06T05:48:43.277Z,12.32
2022-12-06T05:51:10.773Z,12.33
2022-12-06T05:53:38.232Z,12.35
2022-12-06T05:56:07.000Z,12.36
2022-12-06T05:58:34.454Z,12.38
2022-12-06T06:01:01.907Z,12.38
2022-12-06T06:03:29.500Z,12.41
2022-12-06T06:06:00.111Z,12.40
2022-12-06T06:08:27.691Z,12.44
2022-12-06T06:10:55.159Z,11.84
2022-12-06T06:13:22.592Z,12.46
2022-12-06T06:15:50.069Z,12.02
2022-12-06T06:18:17.615Z,12.47
2022-12-06T06:20:49.179Z,12.49
2022-12-06T06:23:18.021Z,12.50
2022-12-06T06:25:45.552Z,12.50
2022-12-06T06:28:13.136Z,12.43
2022-12-06T06:30:40.597Z,12.53
2022-12-06T06:33:08.067Z,12.53
2022-12-06T06:35:35.586Z,12.53
2022-12-06T06:38:03.098Z,12.37
2022-12-06T06:40:31.889Z,12.56
2022-12-06T06:43:17.759Z,12.57
2022-12-06T06:45:46.567Z,12.58
2022-12-06T06:48:14.160Z,12.48
2022-12-06T06:50:41.614Z,12.64
2022-12-06T06:53:09.129Z,12.63
2022-12-06T06:55:37.886Z,12.61
2022-12-06T06:58:05.464Z,12.62
2022-12-06T07:00:33.140Z,12.22
2022-12-06T07:03:00.652Z,12.63
2022-12-06T07:05:28.152Z,12.66
2022-12-06T07:07:57.575Z,12.68
2022-12-06T07:10:27.195Z,12.73
2022-12-06T07:12:55.957Z,12.80
2022-12-06T07:15:23.397Z,12.88
2022-12-06T07:17:51.513Z,12.88
2022-12-06T07:20:19.055Z,12.91
2022-12-06T07:22:46.550Z,12.92
2022-12-06T07:25:13.988Z,12.94
2022-12-06T07:27:41.438Z,12.95
2022-12-06T07:30:15.812Z,12.97
2022-12-06T07:32:44.551Z,12.99
2022-12-06T07:35:12.107Z,13.01
2022-12-06T07:37:39.795Z,12.91
2022-12-06T07:40:08.972Z,13.13
2022-12-06T07:42:53.974Z,13.15
2022-12-06T07:45:22.751Z,13.17
2022-12-06T07:47:50.210Z,13.15
2022-12-06T07:50:18.779Z,12.80
2022-12-06T07:52:46.451Z,13.13
2022-12-06T07:55:14.019Z,13.12
2022-12-06T07:57:43.642Z,12.70
2022-12-06T08:00:12.950Z,12.76
2022-12-06T08:02:41.723Z,13.15
2022-12-06T08:05:09.823Z,13.17
2022-12-06T08:07:37.317Z,13.22
2022-12-06T08:10:05.157Z,13.23
2022-12-06T08:12:32.817Z,12.80
2022-12-06T08:15:00.496Z,13.23
2022-12-06T08:17:28.009Z,13.18
2022-12-06T08:19:56.876Z,13.27
2022-12-06T08:22:24.362Z,13.30
2022-12-06T08:24:51.844Z,13.32
2022-12-06T08:27:19.295Z,13.32
2022-12-06T08:29:46.733Z,13.31
2022-12-06T08:32:14.183Z,13.35
2022-12-06T08:34:42.758Z,13.36
2022-12-06T08:37:11.659Z,13.37
2022-12-06T08:39:39.114Z,13.39
2022-12-06T08:42:07.918Z,13.40
2022-12-06T08:44:36.316Z,13.41
2022-12-06T08:47:03.791Z,13.43
2022-12-06T08:49:31.370Z,13.05
2022-12-06T08:51:59.005Z,12.71
2022-12-06T08:54:27.764Z,13.22
2022-12-06T08:56:55.401Z,13.15
2022-12-06T08:59:23.067Z,13.11
2022-12-06T09:01:50.551Z,13.11
2022-12-06T09:04:18.047Z,13.19
2022-12-06T09:06:45.663Z,13.36
2022-12-06T09:09:13.761Z,13.55
2022-12-06T09:11:42.554Z,13.66
2022-12-06T09:14:11.056Z,13.75
2022-12-06T09:16:38.932Z,13.75
2022-12-06T09:19:06.377Z,13.73
2022-12-06T09:21:34.410Z,13.73
2022-12-06T09:24:01.872Z,13.77
2022-12-06T09:26:29.615Z,13.78
2022-12-06T09:28:58.740Z,13.31
2022-12-06T09:31:26.373Z,13.77
2022-12-06T09:33:53.883Z,13.77
2022-12-06T09:36:23.221Z,13.59
2022-12-06T09:38:52.795Z,13.76
2022-12-06T09:41:29.354Z,13.78
2022-12-06T09:44:05.260Z,13.72
2022-12-06T09:46:43.422Z,13.69
2022-12-06T09:49:29.524Z,13.70
2022-12-06T09:52:17.041Z,13.32
2022-12-06T09:54:57.383Z,13.39
2022-12-06T09:57:30.825Z,13.25
2022-12-06T10:00:05.239Z,13.72
2022-12-06T10:02:52.223Z,13.92
2022-12-06T10:05:31.353Z,14.00
2022-12-06T10:08:04.017Z,14.03
2022-12-06T10:10:35.523Z,13.90
2022-12-06T10:13:05.212Z,13.73
2022-12-06T10:15:41.330Z,14.07
2022-12-06T10:18:16.412Z,14.08
2022-12-06T10:20:46.264Z,14.07
2022-12-06T10:23:20.078Z,14.02
2022-12-06T10:25:50.234Z,13.55
2022-12-06T10:28:19.222Z,14.06
2022-12-06T10:30:51.328Z,14.06
2022-12-06T10:33:22.248Z,14.06
2022-12-06T10:35:52.104Z,14.04
2022-12-06T10:38:26.367Z,14.01
2022-12-06T10:41:01.156Z,14.01
2022-12-06T10:43:30.153Z,13.99
2022-12-06T10:46:22.667Z,13.75
2022-12-06T10:48:55.711Z,13.88
2022-12-06T10:51:25.016Z,13.97
2022-12-06T10:53:53.988Z,13.90
2022-12-06T10:56:22.356Z,13.91
2022-12-06T10:58:52.058Z,13.86
2022-12-06T11:01:22.255Z,13.49
2022-12-06T11:03:51.135Z,13.80
2022-12-06T11:06:21.614Z,13.83
2022-12-06T11:08:50.778Z,13.45
2022-12-06T11:11:21.240Z,13.71
2022-12-06T11:13:49.805Z,13.65
2022-12-06T11:16:18.904Z,13.85
2022-12-06T11:18:47.853Z,13.83
2022-12-06T11:21:21.749Z,13.81
2022-12-06T11:23:53.146Z,13.81
2022-12-06T11:26:24.246Z,13.75
2022-12-06T11:28:59.973Z,13.71
2022-12-06T11:31:28.895Z,13.32
2022-12-06T11:33:57.683Z,13.71
2022-12-06T11:36:25.257Z,13.72
2022-12-06T11:38:52.742Z,13.73
2022-12-06T11:41:22.289Z,13.75
2022-12-06T11:43:49.842Z,13.26
2022-12-06T11:46:17.369Z,13.77
2022-12-06T11:48:44.879Z,13.78
2022-12-06T11:51:17.472Z,13.68
2022-12-06T11:53:53.481Z,13.40
2022-12-06T11:56:23.317Z,13.80
2022-12-06T11:58:58.980Z,13.85
2022-12-06T12:01:38.081Z,13.28
2022-12-06T12:04:39.285Z,13.85
2022-12-06T12:07:13.324Z,13.84
2022-12-06T12:09:47.693Z,13.82
2022-12-06T12:12:16.489Z,13.79
2022-12-06T12:14:49.582Z,13.78
2022-12-06T12:17:20.420Z,13.51
2022-12-06T12:19:51.045Z,13.76
2022-12-06T12:22:25.067Z,13.77
2022-12-06T12:27:46.033Z,13.71
2022-12-06T12:30:28.091Z,13.78
2022-12-06T12:33:18.987Z,13.79
2022-12-06T12:35:47.403Z,13.38
2022-12-06T12:38:19.252Z,13.48
2022-12-06T12:40:47.609Z,13.78
2022-12-06T12:43:17.542Z,13.79
2022-12-06T12:46:03.566Z,13.79
2022-12-06T12:48:31.147Z,13.27
2022-12-06T12:51:00.126Z,13.30
2022-12-06T12:53:30.760Z,13.78
2022-12-06T12:56:07.132Z,13.79
2022-12-06T12:58:36.255Z,13.79
2022-12-06T13:01:06.923Z,13.74
2022-12-06T13:03:50.554Z,13.80
2022-12-06T13:06:22.610Z,13.82
2022-12-06T13:08:51.398Z,13.81
2022-12-06T13:11:18.863Z,13.84
2022-12-06T13:13:48.271Z,13.64
2022-12-06T13:16:16.876Z,13.83
2022-12-06T13:18:46.078Z,13.38
2022-12-06T13:21:24.048Z,13.33
2022-12-06T13:23:54.405Z,13.83
2022-12-06T13:26:24.042Z,13.82
2022-12-06T13:28:52.289Z,13.85
2022-12-06T13:31:21.095Z,13.48
2022-12-06T13:33:50.337Z,13.84
2022-12-06T13:36:17.790Z,13.83
2022-12-06T13:38:45.297Z,13.83
2022-12-06T13:41:14.368Z,13.83
2022-12-06T13:43:51.490Z,13.84
2022-12-06T13:46:32.909Z,13.85
2022-12-06T13:49:01.945Z,13.85
2022-12-06T13:51:50.500Z,13.87
2022-12-06T13:54:36.076Z,13.86
2022-12-06T13:57:26.157Z,13.86
2022-12-06T13:59:53.708Z,13.81
2022-12-06T14:02:44.856Z,13.82
2022-12-06T14:08:20.987Z,13.80
2022-12-06T14:10:48.525Z,13.79
2022-12-06T14:13:21.501Z,13.75
2022-12-06T14:15:52.554Z,13.74
2022-12-06T14:18:21.482Z,13.73
2022-12-06T14:20:49.611Z,13.74
2022-12-06T14:23:24.248Z,13.75
2022-12-06T14:25:51.810Z,13.75
2022-12-06T14:28:20.657Z,13.75
2022-12-06T14:30:48.209Z,13.76
2022-12-06T14:33:19.590Z,13.38
2022-12-06T14:35:50.630Z,13.77
2022-12-06T14:38:22.737Z,13.03
2022-12-06T14:41:04.594Z,13.75
2022-12-06T14:43:33.907Z,13.76
2022-12-06T14:46:03.045Z,13.75
2022-12-06T14:48:52.848Z,13.24
2022-12-06T14:51:23.224Z,13.74
2022-12-06T14:53:51.369Z,13.75
2022-12-06T14:56:23.232Z,13.35
2022-12-06T14:58:52.056Z,13.77
2022-12-06T15:01:22.557Z,13.78
2022-12-06T15:03:58.131Z,13.79
2022-12-06T15:06:26.504Z,13.79
2022-12-06T15:09:05.790Z,13.78
2022-12-06T15:11:51.310Z,13.41
2022-12-06T15:14:21.931Z,13.30
2022-12-06T15:16:57.741Z,13.37
2022-12-06T15:19:25.207Z,13.81
2022-12-06T15:21:52.806Z,13.82
2022-12-06T15:24:20.920Z,13.81
2022-12-06T15:26:48.427Z,13.39
2022-12-06T15:29:16.017Z,13.83
2022-12-06T15:31:49.258Z,13.57
2022-12-06T15:34:22.373Z,13.83
2022-12-06T15:36:55.927Z,13.82
2022-12-06T15:39:36.732Z,13.81
2022-12-06T15:42:04.243Z,13.49
2022-12-06T15:44:31.679Z,13.81
2022-12-06T15:47:00.455Z,13.82
2022-12-06T15:49:28.380Z,13.82
2022-12-06T15:51:55.847Z,13.81
2022-12-06T15:54:24.083Z,13.40
2022-12-06T15:56:51.812Z,13.82
2022-12-06T15:59:19.498Z,13.26
2022-12-06T16:01:48.505Z,13.80
2022-12-06T16:04:17.931Z,13.81
2022-12-06T16:06:45.628Z,13.37
2022-12-06T16:09:13.851Z,13.62
2022-12-06T16:11:41.364Z,13.78
2022-12-06T16:14:08.863Z,13.77
2022-12-06T16:16:42.907Z,13.76
2022-12-06T16:19:10.951Z,13.76
2022-12-06T16:21:51.545Z,13.38
2022-12-06T16:24:18.120Z,13.73
2022-12-06T16:26:45.956Z,13.73
2022-12-06T16:29:14.539Z,13.36
2022-12-06T16:31:42.176Z,13.71
2022-12-06T16:34:09.791Z,13.71
2022-12-06T16:36:53.298Z,13.68
2022-12-06T16:39:20.745Z,13.66
2022-12-06T16:41:48.391Z,13.65
2022-12-06T16:44:15.831Z,13.64
2022-12-06T16:46:44.352Z,13.54
2022-12-06T16:49:46.764Z,13.60
2022-12-06T16:52:03.827Z,13.57
2022-12-06T16:54:31.257Z,13.54
2022-12-06T16:56:58.687Z,13.53
2022-12-06T16:59:26.123Z,13.54
2022-12-06T17:01:54.433Z,12.96
2022-12-06T17:04:22.016Z,13.23
2022-12-06T17:06:49.671Z,13.51
2022-12-06T17:09:18.435Z,13.50
2022-12-06T17:12:06.165Z,13.49
2022-12-06T17:14:33.828Z,13.46
2022-12-06T17:17:03.797Z,13.45
2022-12-06T17:19:32.015Z,13.42
2022-12-06T17:21:59.520Z,12.66
2022-12-06T17:24:28.646Z,13.00
2022-12-06T17:26:56.212Z,13.39
2022-12-06T17:29:24.177Z,13.39
2022-12-06T17:31:51.735Z,13.38
2022-12-06T17:34:19.826Z,13.37
2022-12-06T17:36:47.810Z,13.37
2022-12-06T17:39:16.148Z,12.89
2022-12-06T17:42:02.586Z,13.38
2022-12-06T17:44:30.203Z,13.28
2022-12-06T17:46:57.687Z,13.34
2022-12-06T17:49:26.030Z,13.34
2022-12-06T17:51:53.544Z,13.34
2022-12-06T17:54:21.373Z,12.72
2022-12-06T17:56:50.551Z,13.31
2022-12-06T17:59:18.686Z,13.31
2022-12-06T18:04:33.770Z,13.27
2022-12-06T18:07:01.239Z,13.29
2022-12-06T18:09:28.859Z,13.28
2022-12-06T18:11:57.657Z,13.27
2022-12-06T18:14:25.133Z,13.25
2022-12-06T18:16:52.624Z,13.27
2022-12-06T18:19:21.249Z,12.89
2022-12-06T18:21:49.514Z,12.70
2022-12-06T18:24:22.562Z,12.84
2022-12-06T18:26:51.267Z,13.21
2022-12-06T18:29:20.686Z,13.20
2022-12-06T18:31:48.260Z,13.19
2022-12-06T18:34:15.772Z,13.19
2022-12-06T18:36:43.275Z,13.19
2022-12-06T18:39:15.083Z,12.63
2022-12-06T18:41:43.366Z,13.16
2022-12-06T18:44:10.825Z,13.16
2022-12-06T18:46:41.100Z,13.15
2022-12-06T18:49:08.597Z,13.15
2022-12-06T18:51:38.340Z,13.15
2022-12-06T18:54:06.024Z,13.13
2022-12-06T18:56:34.038Z,13.12
2022-12-06T18:59:01.998Z,12.71
2022-12-06T19:01:30.963Z,13.12
2022-12-06T19:04:00.587Z,12.92
2022-12-06T19:06:29.206Z,13.11
2022-12-06T19:08:57.680Z,12.60
2022-12-06T19:11:25.171Z,13.10
2022-12-06T19:13:53.223Z,13.09
2022-12-06T19:16:22.950Z,13.04
2022-12-06T19:18:50.872Z,13.08
2022-12-06T19:21:19.712Z,13.05
2022-12-06T19:23:47.238Z,13.06
2022-12-06T19:26:14.679Z,13.05
2022-12-06T19:28:42.183Z,12.67
2022-12-06T19:31:11.327Z,12.68
2022-12-06T19:33:39.566Z,12.78
2022-12-06T19:36:08.037Z,13.03
2022-12-06T19:38:36.843Z,12.98
2022-12-06T19:41:04.629Z,12.73
2022-12-06T19:43:49.690Z,13.02
2022-12-06T19:46:17.971Z,12.52
2022-12-06T19:48:45.512Z,13.00
2022-12-06T19:51:13.015Z,12.99
2022-12-06T19:53:42.838Z,12.99
2022-12-06T19:56:11.669Z,12.98
2022-12-06T19:58:39.152Z,12.73
2022-12-06T20:01:10.249Z,12.97
2022-12-06T20:03:38.120Z,12.58
2022-12-06T20:06:06.814Z,12.98
2022-12-06T20:08:34.276Z,12.97
2022-12-06T20:11:07.224Z,12.98
2022-12-06T20:13:34.777Z,12.49
2022-12-06T20:16:02.791Z,12.96
2022-12-06T20:18:30.348Z,12.69
2022-12-06T20:20:57.820Z,12.87
2022-12-06T20:23:25.361Z,12.60
2022-12-06T20:25:52.818Z,12.93
2022-12-06T20:28:21.609Z,12.93
2022-12-06T20:30:49.172Z,12.87
2022-12-06T20:33:16.664Z,12.91
2022-12-06T20:35:44.139Z,12.91
2022-12-06T20:38:11.852Z,12.92
2022-12-06T20:40:39.313Z,12.92
2022-12-06T20:43:06.786Z,12.83
2022-12-06T20:45:36.226Z,12.92
2022-12-06T20:48:04.012Z,12.87
2022-12-06T20:50:31.517Z,12.91
2022-12-06T20:52:59.004Z,12.90
2022-12-06T20:55:26.485Z,12.89
2022-12-06T20:57:53.975Z,12.89
2022-12-06T21:00:22.324Z,12.88
2022-12-06T21:02:51.213Z,12.88
2022-12-06T21:05:19.100Z,12.89
2022-12-06T21:07:46.710Z,12.80
2022-12-06T21:10:14.232Z,12.87
2022-12-06T21:12:41.683Z,12.89
2022-12-06T21:15:09.694Z,12.89
2022-12-06T21:17:37.156Z,12.88
2022-12-06T21:20:07.524Z,12.87
2022-12-06T21:22:35.003Z,12.87
2022-12-06T21:25:02.499Z,12.86
2022-12-06T21:27:29.976Z,12.85
2022-12-06T21:29:57.480Z,12.84
2022-12-06T21:32:25.714Z,12.85
2022-12-06T21:34:53.165Z,12.85
2022-12-06T21:37:21.987Z,12.85
2022-12-06T21:39:49.459Z,12.84
2022-12-06T21:42:20.753Z,12.84
2022-12-06T21:44:48.213Z,12.84
2022-12-06T21:47:15.670Z,12.83
2022-12-06T21:49:43.106Z,12.41
2022-12-06T21:52:10.614Z,12.34
2022-12-06T21:54:39.426Z,12.84
2022-12-06T21:57:06.958Z,12.82
2022-12-06T21:59:34.495Z,12.82
2022-12-06T22:02:02.073Z,12.81
2022-12-06T22:04:29.630Z,12.82
2022-12-06T22:06:57.129Z,12.82
2022-12-06T22:09:24.591Z,12.82
2022-12-06T22:11:53.567Z,12.83
2022-12-06T22:14:21.081Z,12.82
2022-12-06T22:16:49.788Z,12.82
2022-12-06T22:19:17.432Z,12.82
2022-12-06T22:21:44.932Z,12.81
2022-12-06T22:24:12.456Z,12.82
2022-12-06T22:26:40.000Z,12.81
2022-12-06T22:29:08.810Z,12.80
2022-12-06T22:31:36.352Z,12.80
2022-12-06T22:34:03.835Z,12.80
2022-12-06T22:36:31.823Z,12.36
2022-12-06T22:39:00.266Z,12.38
2022-12-06T22:41:28.338Z,12.81
2022-12-06T22:43:56.681Z,12.81
2022-12-06T22:46:26.675Z,12.81
2022-12-06T22:48:54.362Z,12.61
2022-12-06T22:51:23.276Z,12.80
2022-12-06T22:53:53.184Z,12.20
2022-12-06T22:56:20.742Z,12.33
2022-12-06T22:58:48.200Z,12.79
2022-12-06T23:01:17.161Z,12.77
2022-12-06T23:03:46.241Z,12.33
2022-12-06T23:06:13.878Z,12.75
2022-12-06T23:08:41.432Z,12.78
2022-12-06T23:11:09.808Z,12.28
2022-12-06T23:13:37.316Z,12.79
2022-12-06T23:16:06.921Z,12.29
2022-12-06T23:18:34.794Z,12.44
2022-12-06T23:21:06.975Z,12.79
2022-12-06T23:23:34.569Z,12.78
2022-12-06T23:26:03.359Z,12.28
2022-12-06T23:28:31.200Z,12.78
2022-12-06T23:31:02.833Z,12.55
2022-12-06T23:33:30.287Z,12.76
2022-12-06T23:36:04.366Z,12.76
2022-12-06T23:38:32.139Z,12.77
2022-12-06T23:41:03.068Z,12.78
2022-12-06T23:43:30.514Z,12.78
2022-12-06T23:46:01.038Z,12.78
2022-12-06T23:48:31.926Z,12.78
2022-12-06T23:51:00.621Z,12.27
2022-12-06T23:53:29.465Z,12.71
2022-12-06T23:55:59.616Z,12.77
2022-12-06T23:58:26.992Z,12.75
